<?xml version="1.0" encoding="UTF-8" standalone="no" ?>
<gpx xmlns="http://www.topografix.com/GPX/1/1" xmlns:xsi="http://www.w3.org/2001/XMLSchema-instance" xsi:schemaLocation="http://www.topografix.com/GPX/1/1 http://www.topografix.com/GPX/1/1/gpx.xsd" version="1.1" creator="VisuGPX - https://www.visugpx.com">
  <metadata>
    <name>Audibergue</name>
    <desc><![CDATA[Audibergue - Boucle antihoraire (avec recherche champignos...)]]></desc>
  </metadata>
  <trk>
    <name><![CDATA[2015-11-08 11:06]]></name>
    <desc><![CDATA[<h1>OruxMaps</h1><br /><hr align="center" width="480" style="height: 2px; width: 517px"/><h2>Nom: 2015-11-08 11:06</h2><br /><p>Temps de départ: 11/08/2015 11:06</p><p>Temps d'arrivée: 11/08/2015 17:16</p><p>Distance: 10km (06:09)</p><p>Temps déplacement: 03:44</p><p>Vitesse moyenne: 1,6km/h</p><p>Vitesse moyenne: 2,7km/h</p><p>Vitess Max.: 6,3km/h</p><p>Altitude minimale: 1131m</p><p>Altitude maximale: 1697m</p><p>Vitesse d'élévation: 187,9m/h</p><p>Vitesse de descente: -277,8m/h</p><p>Gain Altitude: 668m</p><p>Perte Altitude: -660m</p><p>Temps d'élévation: 03:33</p><p>Temps de descente: 02:22</p><hr align="center" width="480" style="height: 2px; width: 517px"/>]]></desc>
    <trkseg>
      <trkpt lat="43.74405" lon="6.75262">
        <ele>1131.92</ele>
        <time>2015-11-08T10:06:59Z</time>
      </trkpt>
      <trkpt lat="43.7441" lon="6.75236">
        <ele>1141.57</ele>
        <time>2015-11-08T10:10:07Z</time>
      </trkpt>
      <trkpt lat="43.74423" lon="6.75218">
        <ele>1144.28</ele>
        <time>2015-11-08T10:11:06Z</time>
      </trkpt>
      <trkpt lat="43.74435" lon="6.75199">
        <ele>1145.4</ele>
        <time>2015-11-08T10:11:22Z</time>
      </trkpt>
      <trkpt lat="43.74449" lon="6.75182">
        <ele>1145.95</ele>
        <time>2015-11-08T10:11:41Z</time>
      </trkpt>
      <trkpt lat="43.74467" lon="6.75181">
        <ele>1147.17</ele>
        <time>2015-11-08T10:12:20Z</time>
      </trkpt>
      <trkpt lat="43.74486" lon="6.75181">
        <ele>1148.91</ele>
        <time>2015-11-08T10:12:44Z</time>
      </trkpt>
      <trkpt lat="43.74502" lon="6.75195">
        <ele>1153.81</ele>
        <time>2015-11-08T10:13:40Z</time>
      </trkpt>
      <trkpt lat="43.74512" lon="6.75215">
        <ele>1157.35</ele>
        <time>2015-11-08T10:14:33Z</time>
      </trkpt>
      <trkpt lat="43.7453" lon="6.75219">
        <ele>1165.04</ele>
        <time>2015-11-08T10:15:41Z</time>
      </trkpt>
      <trkpt lat="43.74548" lon="6.75215">
        <ele>1165.58</ele>
        <time>2015-11-08T10:16:03Z</time>
      </trkpt>
      <trkpt lat="43.74567" lon="6.75208">
        <ele>1165.6</ele>
        <time>2015-11-08T10:16:24Z</time>
      </trkpt>
      <trkpt lat="43.74584" lon="6.75199">
        <ele>1166.1</ele>
        <time>2015-11-08T10:16:46Z</time>
      </trkpt>
      <trkpt lat="43.74602" lon="6.75192">
        <ele>1167.52</ele>
        <time>2015-11-08T10:17:15Z</time>
      </trkpt>
      <trkpt lat="43.74618" lon="6.75179">
        <ele>1171.01</ele>
        <time>2015-11-08T10:17:35Z</time>
      </trkpt>
      <trkpt lat="43.74636" lon="6.75181">
        <ele>1177.22</ele>
        <time>2015-11-08T10:18:58Z</time>
      </trkpt>
      <trkpt lat="43.74618" lon="6.75188">
        <ele>1179.58</ele>
        <time>2015-11-08T10:20:46Z</time>
      </trkpt>
      <trkpt lat="43.746" lon="6.75192">
        <ele>1177.06</ele>
        <time>2015-11-08T10:21:10Z</time>
      </trkpt>
      <trkpt lat="43.74585" lon="6.75206">
        <ele>1174.67</ele>
        <time>2015-11-08T10:21:29Z</time>
      </trkpt>
      <trkpt lat="43.74577" lon="6.75229">
        <ele>1175.79</ele>
        <time>2015-11-08T10:22:05Z</time>
      </trkpt>
      <trkpt lat="43.74572" lon="6.75253">
        <ele>1181.01</ele>
        <time>2015-11-08T10:23:16Z</time>
      </trkpt>
      <trkpt lat="43.74564" lon="6.75277">
        <ele>1186.46</ele>
        <time>2015-11-08T10:24:01Z</time>
      </trkpt>
      <trkpt lat="43.74566" lon="6.75302">
        <ele>1189.91</ele>
        <time>2015-11-08T10:24:43Z</time>
      </trkpt>
      <trkpt lat="43.74574" lon="6.75324">
        <ele>1195.44</ele>
        <time>2015-11-08T10:25:31Z</time>
      </trkpt>
      <trkpt lat="43.74585" lon="6.75344">
        <ele>1197.92</ele>
        <time>2015-11-08T10:26:04Z</time>
      </trkpt>
      <trkpt lat="43.74591" lon="6.75368">
        <ele>1199.39</ele>
        <time>2015-11-08T10:28:30Z</time>
      </trkpt>
      <trkpt lat="43.74592" lon="6.75393">
        <ele>1195.02</ele>
        <time>2015-11-08T10:29:12Z</time>
      </trkpt>
      <trkpt lat="43.74596" lon="6.75418">
        <ele>1193.97</ele>
        <time>2015-11-08T10:29:46Z</time>
      </trkpt>
      <trkpt lat="43.74588" lon="6.7544">
        <ele>1194.06</ele>
        <time>2015-11-08T10:30:18Z</time>
      </trkpt>
      <trkpt lat="43.7458" lon="6.75463">
        <ele>1190.81</ele>
        <time>2015-11-08T10:30:47Z</time>
      </trkpt>
      <trkpt lat="43.74593" lon="6.75481">
        <ele>1195.3</ele>
        <time>2015-11-08T10:31:52Z</time>
      </trkpt>
      <trkpt lat="43.74575" lon="6.75481">
        <ele>1196.45</ele>
        <time>2015-11-08T10:33:00Z</time>
      </trkpt>
      <trkpt lat="43.74567" lon="6.75504">
        <ele>1195.22</ele>
        <time>2015-11-08T10:33:14Z</time>
      </trkpt>
      <trkpt lat="43.74565" lon="6.75529">
        <ele>1193.81</ele>
        <time>2015-11-08T10:33:28Z</time>
      </trkpt>
      <trkpt lat="43.74571" lon="6.75504">
        <ele>1192.64</ele>
        <time>2015-11-08T10:35:41Z</time>
      </trkpt>
      <trkpt lat="43.74582" lon="6.75484">
        <ele>1194.1</ele>
        <time>2015-11-08T10:36:31Z</time>
      </trkpt>
      <trkpt lat="43.746" lon="6.75478">
        <ele>1196.74</ele>
        <time>2015-11-08T10:37:11Z</time>
      </trkpt>
      <trkpt lat="43.74599" lon="6.75503">
        <ele>1198.15</ele>
        <time>2015-11-08T10:38:40Z</time>
      </trkpt>
      <trkpt lat="43.74581" lon="6.75493">
        <ele>1198.06</ele>
        <time>2015-11-08T10:39:19Z</time>
      </trkpt>
      <trkpt lat="43.74568" lon="6.75511">
        <ele>1197.77</ele>
        <time>2015-11-08T10:41:08Z</time>
      </trkpt>
      <trkpt lat="43.74564" lon="6.75536">
        <ele>1193.51</ele>
        <time>2015-11-08T10:41:26Z</time>
      </trkpt>
      <trkpt lat="43.74553" lon="6.75558">
        <ele>1191.26</ele>
        <time>2015-11-08T10:42:01Z</time>
      </trkpt>
      <trkpt lat="43.74548" lon="6.75582">
        <ele>1189.45</ele>
        <time>2015-11-08T10:42:23Z</time>
      </trkpt>
      <trkpt lat="43.74561" lon="6.75599">
        <ele>1189.62</ele>
        <time>2015-11-08T10:43:09Z</time>
      </trkpt>
      <trkpt lat="43.7456" lon="6.75624">
        <ele>1185.39</ele>
        <time>2015-11-08T10:43:50Z</time>
      </trkpt>
      <trkpt lat="43.74563" lon="6.75649">
        <ele>1185.81</ele>
        <time>2015-11-08T10:44:22Z</time>
      </trkpt>
      <trkpt lat="43.74567" lon="6.75674">
        <ele>1187.49</ele>
        <time>2015-11-08T10:44:48Z</time>
      </trkpt>
      <trkpt lat="43.74552" lon="6.75687">
        <ele>1186.43</ele>
        <time>2015-11-08T10:45:18Z</time>
      </trkpt>
      <trkpt lat="43.74546" lon="6.75663">
        <ele>1189.39</ele>
        <time>2015-11-08T10:46:21Z</time>
      </trkpt>
      <trkpt lat="43.74561" lon="6.75677">
        <ele>1189.08</ele>
        <time>2015-11-08T10:47:13Z</time>
      </trkpt>
      <trkpt lat="43.74562" lon="6.75703">
        <ele>1186.35</ele>
        <time>2015-11-08T10:47:51Z</time>
      </trkpt>
      <trkpt lat="43.74544" lon="6.75709">
        <ele>1186.24</ele>
        <time>2015-11-08T10:48:31Z</time>
      </trkpt>
      <trkpt lat="43.74532" lon="6.75728">
        <ele>1184.55</ele>
        <time>2015-11-08T10:50:20Z</time>
      </trkpt>
      <trkpt lat="43.74532" lon="6.75754">
        <ele>1185.56</ele>
        <time>2015-11-08T10:51:00Z</time>
      </trkpt>
      <trkpt lat="43.7453" lon="6.75779">
        <ele>1181.28</ele>
        <time>2015-11-08T10:51:27Z</time>
      </trkpt>
      <trkpt lat="43.74523" lon="6.75802">
        <ele>1179.82</ele>
        <time>2015-11-08T10:52:05Z</time>
      </trkpt>
      <trkpt lat="43.74518" lon="6.75827">
        <ele>1180.39</ele>
        <time>2015-11-08T10:52:28Z</time>
      </trkpt>
      <trkpt lat="43.7451" lon="6.7585">
        <ele>1180.23</ele>
        <time>2015-11-08T10:52:53Z</time>
      </trkpt>
      <trkpt lat="43.74502" lon="6.75874">
        <ele>1181.08</ele>
        <time>2015-11-08T10:53:18Z</time>
      </trkpt>
      <trkpt lat="43.74505" lon="6.759">
        <ele>1176.15</ele>
        <time>2015-11-08T10:53:53Z</time>
      </trkpt>
      <trkpt lat="43.74507" lon="6.75925">
        <ele>1175.74</ele>
        <time>2015-11-08T10:54:10Z</time>
      </trkpt>
      <trkpt lat="43.74512" lon="6.7595">
        <ele>1177.23</ele>
        <time>2015-11-08T10:55:07Z</time>
      </trkpt>
      <trkpt lat="43.7452" lon="6.75973">
        <ele>1175.12</ele>
        <time>2015-11-08T10:55:42Z</time>
      </trkpt>
      <trkpt lat="43.74526" lon="6.75997">
        <ele>1175.49</ele>
        <time>2015-11-08T10:56:00Z</time>
      </trkpt>
      <trkpt lat="43.74525" lon="6.76022">
        <ele>1175.7</ele>
        <time>2015-11-08T10:56:30Z</time>
      </trkpt>
      <trkpt lat="43.74526" lon="6.76048">
        <ele>1174.02</ele>
        <time>2015-11-08T10:57:59Z</time>
      </trkpt>
      <trkpt lat="43.74523" lon="6.76072">
        <ele>1185.32</ele>
        <time>2015-11-08T11:00:20Z</time>
      </trkpt>
      <trkpt lat="43.74526" lon="6.76097">
        <ele>1187.03</ele>
        <time>2015-11-08T11:00:49Z</time>
      </trkpt>
      <trkpt lat="43.74531" lon="6.76121">
        <ele>1194.19</ele>
        <time>2015-11-08T11:05:17Z</time>
      </trkpt>
      <trkpt lat="43.74548" lon="6.76124">
        <ele>1207.45</ele>
        <time>2015-11-08T11:08:59Z</time>
      </trkpt>
      <trkpt lat="43.74538" lon="6.7615">
        <ele>1218.57</ele>
        <time>2015-11-08T11:09:07Z</time>
      </trkpt>
      <trkpt lat="43.74547" lon="6.76172">
        <ele>1198.69</ele>
        <time>2015-11-08T11:10:25Z</time>
      </trkpt>
      <trkpt lat="43.74564" lon="6.76181">
        <ele>1199.69</ele>
        <time>2015-11-08T11:10:46Z</time>
      </trkpt>
      <trkpt lat="43.74552" lon="6.76201">
        <ele>1203.18</ele>
        <time>2015-11-08T11:12:10Z</time>
      </trkpt>
      <trkpt lat="43.74554" lon="6.76226">
        <ele>1202.42</ele>
        <time>2015-11-08T11:13:02Z</time>
      </trkpt>
      <trkpt lat="43.74538" lon="6.76212">
        <ele>1203.26</ele>
        <time>2015-11-08T11:13:33Z</time>
      </trkpt>
      <trkpt lat="43.74543" lon="6.76188">
        <ele>1205.84</ele>
        <time>2015-11-08T11:15:40Z</time>
      </trkpt>
      <trkpt lat="43.74525" lon="6.76187">
        <ele>1206.25</ele>
        <time>2015-11-08T11:16:31Z</time>
      </trkpt>
      <trkpt lat="43.74529" lon="6.76211">
        <ele>1204.38</ele>
        <time>2015-11-08T11:17:08Z</time>
      </trkpt>
      <trkpt lat="43.74534" lon="6.76236">
        <ele>1202.69</ele>
        <time>2015-11-08T11:17:29Z</time>
      </trkpt>
      <trkpt lat="43.74552" lon="6.76232">
        <ele>1204.46</ele>
        <time>2015-11-08T11:17:46Z</time>
      </trkpt>
      <trkpt lat="43.7456" lon="6.76209">
        <ele>1208.2</ele>
        <time>2015-11-08T11:19:34Z</time>
      </trkpt>
      <trkpt lat="43.74578" lon="6.76212">
        <ele>1209.34</ele>
        <time>2015-11-08T11:20:20Z</time>
      </trkpt>
      <trkpt lat="43.7459" lon="6.7623">
        <ele>1210.08</ele>
        <time>2015-11-08T11:20:39Z</time>
      </trkpt>
      <trkpt lat="43.74596" lon="6.76255">
        <ele>1207.65</ele>
        <time>2015-11-08T11:21:03Z</time>
      </trkpt>
      <trkpt lat="43.746" lon="6.7628">
        <ele>1205.2</ele>
        <time>2015-11-08T11:21:23Z</time>
      </trkpt>
      <trkpt lat="43.74603" lon="6.76305">
        <ele>1205.34</ele>
        <time>2015-11-08T11:21:41Z</time>
      </trkpt>
      <trkpt lat="43.74602" lon="6.7633">
        <ele>1205.8</ele>
        <time>2015-11-08T11:22:52Z</time>
      </trkpt>
      <trkpt lat="43.74608" lon="6.76355">
        <ele>1206</ele>
        <time>2015-11-08T11:23:16Z</time>
      </trkpt>
      <trkpt lat="43.74616" lon="6.76378">
        <ele>1206.59</ele>
        <time>2015-11-08T11:23:35Z</time>
      </trkpt>
      <trkpt lat="43.74622" lon="6.76403">
        <ele>1208.57</ele>
        <time>2015-11-08T11:23:53Z</time>
      </trkpt>
      <trkpt lat="43.74626" lon="6.76429">
        <ele>1210.29</ele>
        <time>2015-11-08T11:24:13Z</time>
      </trkpt>
      <trkpt lat="43.74629" lon="6.76454">
        <ele>1211.09</ele>
        <time>2015-11-08T11:24:34Z</time>
      </trkpt>
      <trkpt lat="43.74636" lon="6.76478">
        <ele>1212.05</ele>
        <time>2015-11-08T11:25:00Z</time>
      </trkpt>
      <trkpt lat="43.74647" lon="6.765">
        <ele>1215.12</ele>
        <time>2015-11-08T11:25:22Z</time>
      </trkpt>
      <trkpt lat="43.7466" lon="6.76519">
        <ele>1217.36</ele>
        <time>2015-11-08T11:25:42Z</time>
      </trkpt>
      <trkpt lat="43.7466" lon="6.76545">
        <ele>1219.45</ele>
        <time>2015-11-08T11:26:03Z</time>
      </trkpt>
      <trkpt lat="43.74662" lon="6.7657">
        <ele>1222.7</ele>
        <time>2015-11-08T11:26:25Z</time>
      </trkpt>
      <trkpt lat="43.74664" lon="6.76596">
        <ele>1224.95</ele>
        <time>2015-11-08T11:26:47Z</time>
      </trkpt>
      <trkpt lat="43.74667" lon="6.76621">
        <ele>1227.06</ele>
        <time>2015-11-08T11:27:12Z</time>
      </trkpt>
      <trkpt lat="43.74665" lon="6.76646">
        <ele>1228.52</ele>
        <time>2015-11-08T11:27:34Z</time>
      </trkpt>
      <trkpt lat="43.74669" lon="6.76672">
        <ele>1231.02</ele>
        <time>2015-11-08T11:27:54Z</time>
      </trkpt>
      <trkpt lat="43.74675" lon="6.76696">
        <ele>1231.82</ele>
        <time>2015-11-08T11:28:15Z</time>
      </trkpt>
      <trkpt lat="43.74678" lon="6.76722">
        <ele>1231.67</ele>
        <time>2015-11-08T11:28:35Z</time>
      </trkpt>
      <trkpt lat="43.74694" lon="6.76736">
        <ele>1231.4</ele>
        <time>2015-11-08T11:28:54Z</time>
      </trkpt>
      <trkpt lat="43.74712" lon="6.76743">
        <ele>1241.69</ele>
        <time>2015-11-08T11:29:50Z</time>
      </trkpt>
      <trkpt lat="43.74712" lon="6.76768">
        <ele>1249.03</ele>
        <time>2015-11-08T11:30:28Z</time>
      </trkpt>
      <trkpt lat="43.74716" lon="6.76793">
        <ele>1254.14</ele>
        <time>2015-11-08T11:31:08Z</time>
      </trkpt>
      <trkpt lat="43.74728" lon="6.76813">
        <ele>1264.82</ele>
        <time>2015-11-08T11:32:09Z</time>
      </trkpt>
      <trkpt lat="43.74736" lon="6.76836">
        <ele>1269.82</ele>
        <time>2015-11-08T11:32:36Z</time>
      </trkpt>
      <trkpt lat="43.74744" lon="6.7686">
        <ele>1273.15</ele>
        <time>2015-11-08T11:33:00Z</time>
      </trkpt>
      <trkpt lat="43.74748" lon="6.76885">
        <ele>1279.3</ele>
        <time>2015-11-08T11:33:27Z</time>
      </trkpt>
      <trkpt lat="43.74744" lon="6.76909">
        <ele>1282.86</ele>
        <time>2015-11-08T11:33:53Z</time>
      </trkpt>
      <trkpt lat="43.74762" lon="6.76912">
        <ele>1287.51</ele>
        <time>2015-11-08T11:34:45Z</time>
      </trkpt>
      <trkpt lat="43.74777" lon="6.76927">
        <ele>1291.37</ele>
        <time>2015-11-08T11:35:09Z</time>
      </trkpt>
      <trkpt lat="43.74788" lon="6.76948">
        <ele>1294.88</ele>
        <time>2015-11-08T11:35:35Z</time>
      </trkpt>
      <trkpt lat="43.74796" lon="6.7697">
        <ele>1299.29</ele>
        <time>2015-11-08T11:36:00Z</time>
      </trkpt>
      <trkpt lat="43.74784" lon="6.7699">
        <ele>1302.02</ele>
        <time>2015-11-08T11:36:27Z</time>
      </trkpt>
      <trkpt lat="43.74797" lon="6.77008">
        <ele>1313.7</ele>
        <time>2015-11-08T11:37:29Z</time>
      </trkpt>
      <trkpt lat="43.74803" lon="6.77032">
        <ele>1315.99</ele>
        <time>2015-11-08T11:38:01Z</time>
      </trkpt>
      <trkpt lat="43.74796" lon="6.77056">
        <ele>1319.62</ele>
        <time>2015-11-08T11:38:23Z</time>
      </trkpt>
      <trkpt lat="43.74782" lon="6.77074">
        <ele>1324.43</ele>
        <time>2015-11-08T11:38:41Z</time>
      </trkpt>
      <trkpt lat="43.74792" lon="6.77096">
        <ele>1328.31</ele>
        <time>2015-11-08T11:39:14Z</time>
      </trkpt>
      <trkpt lat="43.7481" lon="6.77089">
        <ele>1329.41</ele>
        <time>2015-11-08T11:39:34Z</time>
      </trkpt>
      <trkpt lat="43.74795" lon="6.77103">
        <ele>1334.8</ele>
        <time>2015-11-08T11:39:57Z</time>
      </trkpt>
      <trkpt lat="43.74783" lon="6.77122">
        <ele>1339.25</ele>
        <time>2015-11-08T11:40:17Z</time>
      </trkpt>
      <trkpt lat="43.74766" lon="6.77132">
        <ele>1343.38</ele>
        <time>2015-11-08T11:40:49Z</time>
      </trkpt>
      <trkpt lat="43.74751" lon="6.77148">
        <ele>1345.46</ele>
        <time>2015-11-08T11:41:15Z</time>
      </trkpt>
      <trkpt lat="43.74767" lon="6.77159">
        <ele>1349.09</ele>
        <time>2015-11-08T11:41:42Z</time>
      </trkpt>
      <trkpt lat="43.74778" lon="6.77179">
        <ele>1351.02</ele>
        <time>2015-11-08T11:42:13Z</time>
      </trkpt>
      <trkpt lat="43.74765" lon="6.77201">
        <ele>1362.56</ele>
        <time>2015-11-08T11:43:22Z</time>
      </trkpt>
      <trkpt lat="43.74769" lon="6.77225">
        <ele>1371.47</ele>
        <time>2015-11-08T11:44:12Z</time>
      </trkpt>
      <trkpt lat="43.74783" lon="6.77243">
        <ele>1375.09</ele>
        <time>2015-11-08T11:44:40Z</time>
      </trkpt>
      <trkpt lat="43.74783" lon="6.77268">
        <ele>1385.35</ele>
        <time>2015-11-08T11:45:42Z</time>
      </trkpt>
      <trkpt lat="43.74777" lon="6.77292">
        <ele>1390.13</ele>
        <time>2015-11-08T11:46:11Z</time>
      </trkpt>
      <trkpt lat="43.7477" lon="6.77316">
        <ele>1395.87</ele>
        <time>2015-11-08T11:46:48Z</time>
      </trkpt>
      <trkpt lat="43.74761" lon="6.77338">
        <ele>1400.93</ele>
        <time>2015-11-08T11:47:19Z</time>
      </trkpt>
      <trkpt lat="43.74754" lon="6.77361">
        <ele>1407.52</ele>
        <time>2015-11-08T11:47:53Z</time>
      </trkpt>
      <trkpt lat="43.74763" lon="6.77383">
        <ele>1415.11</ele>
        <time>2015-11-08T11:48:49Z</time>
      </trkpt>
      <trkpt lat="43.74764" lon="6.77409">
        <ele>1419.51</ele>
        <time>2015-11-08T11:49:38Z</time>
      </trkpt>
      <trkpt lat="43.74775" lon="6.77428">
        <ele>1425.54</ele>
        <time>2015-11-08T11:50:29Z</time>
      </trkpt>
      <trkpt lat="43.74776" lon="6.77453">
        <ele>1429.39</ele>
        <time>2015-11-08T11:50:51Z</time>
      </trkpt>
      <trkpt lat="43.7476" lon="6.77464">
        <ele>1435.06</ele>
        <time>2015-11-08T11:51:15Z</time>
      </trkpt>
      <trkpt lat="43.74742" lon="6.7747">
        <ele>1435.43</ele>
        <time>2015-11-08T11:51:54Z</time>
      </trkpt>
      <trkpt lat="43.74732" lon="6.77491">
        <ele>1439.88</ele>
        <time>2015-11-08T11:52:34Z</time>
      </trkpt>
      <trkpt lat="43.74714" lon="6.77502">
        <ele>1446.63</ele>
        <time>2015-11-08T11:53:40Z</time>
      </trkpt>
      <trkpt lat="43.74698" lon="6.77487">
        <ele>1447.32</ele>
        <time>2015-11-08T11:54:01Z</time>
      </trkpt>
      <trkpt lat="43.7468" lon="6.77496">
        <ele>1445.86</ele>
        <time>2015-11-08T11:54:57Z</time>
      </trkpt>
      <trkpt lat="43.74663" lon="6.77504">
        <ele>1446.34</ele>
        <time>2015-11-08T11:55:26Z</time>
      </trkpt>
      <trkpt lat="43.74652" lon="6.77483">
        <ele>1446.49</ele>
        <time>2015-11-08T11:55:40Z</time>
      </trkpt>
      <trkpt lat="43.74641" lon="6.77464">
        <ele>1448.43</ele>
        <time>2015-11-08T11:56:03Z</time>
      </trkpt>
      <trkpt lat="43.74653" lon="6.77446">
        <ele>1448.21</ele>
        <time>2015-11-08T11:57:09Z</time>
      </trkpt>
      <trkpt lat="43.74645" lon="6.77468">
        <ele>1444.04</ele>
        <time>2015-11-08T11:59:31Z</time>
      </trkpt>
      <trkpt lat="43.74637" lon="6.77491">
        <ele>1445.91</ele>
        <time>2015-11-08T11:59:50Z</time>
      </trkpt>
      <trkpt lat="43.74625" lon="6.7751">
        <ele>1451.62</ele>
        <time>2015-11-08T12:00:21Z</time>
      </trkpt>
      <trkpt lat="43.74622" lon="6.77535">
        <ele>1451.25</ele>
        <time>2015-11-08T12:00:57Z</time>
      </trkpt>
      <trkpt lat="43.74638" lon="6.77547">
        <ele>1453.1</ele>
        <time>2015-11-08T12:02:03Z</time>
      </trkpt>
      <trkpt lat="43.74626" lon="6.77566">
        <ele>1452.88</ele>
        <time>2015-11-08T12:03:50Z</time>
      </trkpt>
      <trkpt lat="43.74614" lon="6.77586">
        <ele>1454.65</ele>
        <time>2015-11-08T12:04:38Z</time>
      </trkpt>
      <trkpt lat="43.74619" lon="6.7761">
        <ele>1460.16</ele>
        <time>2015-11-08T12:05:47Z</time>
      </trkpt>
      <trkpt lat="43.746" lon="6.77608">
        <ele>1458.89</ele>
        <time>2015-11-08T12:06:48Z</time>
      </trkpt>
      <trkpt lat="43.74603" lon="6.77582">
        <ele>1462.76</ele>
        <time>2015-11-08T12:07:33Z</time>
      </trkpt>
      <trkpt lat="43.74586" lon="6.77591">
        <ele>1462.64</ele>
        <time>2015-11-08T12:08:14Z</time>
      </trkpt>
      <trkpt lat="43.74572" lon="6.77609">
        <ele>1459.46</ele>
        <time>2015-11-08T12:09:56Z</time>
      </trkpt>
      <trkpt lat="43.74559" lon="6.7763">
        <ele>1462.76</ele>
        <time>2015-11-08T12:10:59Z</time>
      </trkpt>
      <trkpt lat="43.74543" lon="6.77619">
        <ele>1464.47</ele>
        <time>2015-11-08T12:11:12Z</time>
      </trkpt>
      <trkpt lat="43.74531" lon="6.77639">
        <ele>1464.79</ele>
        <time>2015-11-08T12:12:01Z</time>
      </trkpt>
      <trkpt lat="43.74514" lon="6.77644">
        <ele>1462.59</ele>
        <time>2015-11-08T12:13:28Z</time>
      </trkpt>
      <trkpt lat="43.7451" lon="6.77669">
        <ele>1462.33</ele>
        <time>2015-11-08T12:14:10Z</time>
      </trkpt>
      <trkpt lat="43.74497" lon="6.77687">
        <ele>1466.16</ele>
        <time>2015-11-08T12:14:46Z</time>
      </trkpt>
      <trkpt lat="43.74486" lon="6.77708">
        <ele>1468.29</ele>
        <time>2015-11-08T12:15:31Z</time>
      </trkpt>
      <trkpt lat="43.7447" lon="6.77719">
        <ele>1469.49</ele>
        <time>2015-11-08T12:16:15Z</time>
      </trkpt>
      <trkpt lat="43.74452" lon="6.77721">
        <ele>1470.32</ele>
        <time>2015-11-08T12:17:47Z</time>
      </trkpt>
      <trkpt lat="43.74459" lon="6.77698">
        <ele>1471.06</ele>
        <time>2015-11-08T12:19:26Z</time>
      </trkpt>
      <trkpt lat="43.74442" lon="6.77707">
        <ele>1470.51</ele>
        <time>2015-11-08T12:20:29Z</time>
      </trkpt>
      <trkpt lat="43.74455" lon="6.77689">
        <ele>1472.49</ele>
        <time>2015-11-08T12:21:03Z</time>
      </trkpt>
      <trkpt lat="43.74454" lon="6.77664">
        <ele>1474.65</ele>
        <time>2015-11-08T12:22:06Z</time>
      </trkpt>
      <trkpt lat="43.74471" lon="6.77652">
        <ele>1475.16</ele>
        <time>2015-11-08T12:22:55Z</time>
      </trkpt>
      <trkpt lat="43.74487" lon="6.77662">
        <ele>1471.1</ele>
        <time>2015-11-08T12:23:53Z</time>
      </trkpt>
      <trkpt lat="43.74493" lon="6.77686">
        <ele>1467.26</ele>
        <time>2015-11-08T12:24:28Z</time>
      </trkpt>
      <trkpt lat="43.74505" lon="6.77704">
        <ele>1466.47</ele>
        <time>2015-11-08T12:25:14Z</time>
      </trkpt>
      <trkpt lat="43.7449" lon="6.77719">
        <ele>1462.43</ele>
        <time>2015-11-08T12:25:40Z</time>
      </trkpt>
      <trkpt lat="43.74475" lon="6.77705">
        <ele>1464.53</ele>
        <time>2015-11-08T12:26:50Z</time>
      </trkpt>
      <trkpt lat="43.74481" lon="6.77681">
        <ele>1469.25</ele>
        <time>2015-11-08T12:36:50Z</time>
      </trkpt>
      <trkpt lat="43.74475" lon="6.77705">
        <ele>1471.28</ele>
        <time>2015-11-08T13:10:41Z</time>
      </trkpt>
      <trkpt lat="43.74457" lon="6.7771">
        <ele>1472.98</ele>
        <time>2015-11-08T13:11:03Z</time>
      </trkpt>
      <trkpt lat="43.74438" lon="6.77705">
        <ele>1477.68</ele>
        <time>2015-11-08T13:11:41Z</time>
      </trkpt>
      <trkpt lat="43.74422" lon="6.77719">
        <ele>1477.73</ele>
        <time>2015-11-08T13:12:17Z</time>
      </trkpt>
      <trkpt lat="43.74404" lon="6.77719">
        <ele>1480.3</ele>
        <time>2015-11-08T13:13:17Z</time>
      </trkpt>
      <trkpt lat="43.74389" lon="6.77705">
        <ele>1484.06</ele>
        <time>2015-11-08T13:14:30Z</time>
      </trkpt>
      <trkpt lat="43.74372" lon="6.77695">
        <ele>1486.26</ele>
        <time>2015-11-08T13:15:19Z</time>
      </trkpt>
      <trkpt lat="43.74365" lon="6.77718">
        <ele>1487.52</ele>
        <time>2015-11-08T13:15:55Z</time>
      </trkpt>
      <trkpt lat="43.7436" lon="6.77694">
        <ele>1492.05</ele>
        <time>2015-11-08T13:17:14Z</time>
      </trkpt>
      <trkpt lat="43.74374" lon="6.77678">
        <ele>1492.99</ele>
        <time>2015-11-08T13:18:01Z</time>
      </trkpt>
      <trkpt lat="43.74372" lon="6.77703">
        <ele>1493.29</ele>
        <time>2015-11-08T13:20:05Z</time>
      </trkpt>
      <trkpt lat="43.74387" lon="6.77718">
        <ele>1491.22</ele>
        <time>2015-11-08T13:21:23Z</time>
      </trkpt>
      <trkpt lat="43.74376" lon="6.77738">
        <ele>1483.89</ele>
        <time>2015-11-08T13:23:56Z</time>
      </trkpt>
      <trkpt lat="43.74361" lon="6.77753">
        <ele>1484.17</ele>
        <time>2015-11-08T13:24:33Z</time>
      </trkpt>
      <trkpt lat="43.74342" lon="6.77753">
        <ele>1486.44</ele>
        <time>2015-11-08T13:25:44Z</time>
      </trkpt>
      <trkpt lat="43.74324" lon="6.77755">
        <ele>1492.08</ele>
        <time>2015-11-08T13:26:39Z</time>
      </trkpt>
      <trkpt lat="43.74327" lon="6.7773">
        <ele>1494.43</ele>
        <time>2015-11-08T13:27:10Z</time>
      </trkpt>
      <trkpt lat="43.74328" lon="6.77705">
        <ele>1496.15</ele>
        <time>2015-11-08T13:27:39Z</time>
      </trkpt>
      <trkpt lat="43.74339" lon="6.77684">
        <ele>1496.37</ele>
        <time>2015-11-08T13:28:03Z</time>
      </trkpt>
      <trkpt lat="43.74346" lon="6.7766">
        <ele>1496.12</ele>
        <time>2015-11-08T13:28:33Z</time>
      </trkpt>
      <trkpt lat="43.74346" lon="6.77635">
        <ele>1501.5</ele>
        <time>2015-11-08T13:29:19Z</time>
      </trkpt>
      <trkpt lat="43.74332" lon="6.77653">
        <ele>1508.49</ele>
        <time>2015-11-08T13:31:49Z</time>
      </trkpt>
      <trkpt lat="43.74321" lon="6.77673">
        <ele>1509.87</ele>
        <time>2015-11-08T13:32:10Z</time>
      </trkpt>
      <trkpt lat="43.74312" lon="6.77695">
        <ele>1510.21</ele>
        <time>2015-11-08T13:32:39Z</time>
      </trkpt>
      <trkpt lat="43.74307" lon="6.7772">
        <ele>1510.31</ele>
        <time>2015-11-08T13:33:16Z</time>
      </trkpt>
      <trkpt lat="43.74318" lon="6.7774">
        <ele>1505.41</ele>
        <time>2015-11-08T13:34:32Z</time>
      </trkpt>
      <trkpt lat="43.74322" lon="6.77765">
        <ele>1500.64</ele>
        <time>2015-11-08T13:35:37Z</time>
      </trkpt>
      <trkpt lat="43.74317" lon="6.77789">
        <ele>1500.29</ele>
        <time>2015-11-08T13:36:12Z</time>
      </trkpt>
      <trkpt lat="43.74313" lon="6.77814">
        <ele>1499.49</ele>
        <time>2015-11-08T13:36:40Z</time>
      </trkpt>
      <trkpt lat="43.74315" lon="6.77839">
        <ele>1494.73</ele>
        <time>2015-11-08T13:38:35Z</time>
      </trkpt>
      <trkpt lat="43.74297" lon="6.77837">
        <ele>1494.97</ele>
        <time>2015-11-08T13:39:33Z</time>
      </trkpt>
      <trkpt lat="43.74282" lon="6.77852">
        <ele>1499.09</ele>
        <time>2015-11-08T13:40:11Z</time>
      </trkpt>
      <trkpt lat="43.74276" lon="6.77876">
        <ele>1501.01</ele>
        <time>2015-11-08T13:40:45Z</time>
      </trkpt>
      <trkpt lat="43.74284" lon="6.77899">
        <ele>1501.82</ele>
        <time>2015-11-08T13:41:32Z</time>
      </trkpt>
      <trkpt lat="43.74301" lon="6.77909">
        <ele>1497.4</ele>
        <time>2015-11-08T13:42:19Z</time>
      </trkpt>
      <trkpt lat="43.74299" lon="6.77934">
        <ele>1494.1</ele>
        <time>2015-11-08T13:42:48Z</time>
      </trkpt>
      <trkpt lat="43.74298" lon="6.77959">
        <ele>1492.3</ele>
        <time>2015-11-08T13:43:12Z</time>
      </trkpt>
      <trkpt lat="43.74296" lon="6.77984">
        <ele>1490.37</ele>
        <time>2015-11-08T13:44:10Z</time>
      </trkpt>
      <trkpt lat="43.74282" lon="6.78002">
        <ele>1490.4</ele>
        <time>2015-11-08T13:44:46Z</time>
      </trkpt>
      <trkpt lat="43.7427" lon="6.7802">
        <ele>1493.62</ele>
        <time>2015-11-08T13:47:04Z</time>
      </trkpt>
      <trkpt lat="43.74288" lon="6.78018">
        <ele>1495.19</ele>
        <time>2015-11-08T13:47:53Z</time>
      </trkpt>
      <trkpt lat="43.74292" lon="6.78043">
        <ele>1495.75</ele>
        <time>2015-11-08T13:48:19Z</time>
      </trkpt>
      <trkpt lat="43.74298" lon="6.78067">
        <ele>1495.21</ele>
        <time>2015-11-08T13:48:41Z</time>
      </trkpt>
      <trkpt lat="43.74295" lon="6.78092">
        <ele>1494.78</ele>
        <time>2015-11-08T13:49:36Z</time>
      </trkpt>
      <trkpt lat="43.74282" lon="6.78109">
        <ele>1498.85</ele>
        <time>2015-11-08T13:50:23Z</time>
      </trkpt>
      <trkpt lat="43.74267" lon="6.78123">
        <ele>1503.5</ele>
        <time>2015-11-08T13:51:04Z</time>
      </trkpt>
      <trkpt lat="43.74253" lon="6.7814">
        <ele>1508.56</ele>
        <time>2015-11-08T13:51:44Z</time>
      </trkpt>
      <trkpt lat="43.74243" lon="6.7816">
        <ele>1514.85</ele>
        <time>2015-11-08T13:52:18Z</time>
      </trkpt>
      <trkpt lat="43.74228" lon="6.78175">
        <ele>1523.73</ele>
        <time>2015-11-08T13:54:17Z</time>
      </trkpt>
      <trkpt lat="43.74244" lon="6.78186">
        <ele>1524.59</ele>
        <time>2015-11-08T13:55:36Z</time>
      </trkpt>
      <trkpt lat="43.74258" lon="6.7817">
        <ele>1527.99</ele>
        <time>2015-11-08T13:56:35Z</time>
      </trkpt>
      <trkpt lat="43.7427" lon="6.78189">
        <ele>1524.4</ele>
        <time>2015-11-08T14:00:18Z</time>
      </trkpt>
      <trkpt lat="43.74282" lon="6.78208">
        <ele>1522.12</ele>
        <time>2015-11-08T14:00:42Z</time>
      </trkpt>
      <trkpt lat="43.74301" lon="6.78211">
        <ele>1518.68</ele>
        <time>2015-11-08T14:01:10Z</time>
      </trkpt>
      <trkpt lat="43.74316" lon="6.78224">
        <ele>1515.36</ele>
        <time>2015-11-08T14:01:34Z</time>
      </trkpt>
      <trkpt lat="43.74322" lon="6.78248">
        <ele>1511.11</ele>
        <time>2015-11-08T14:02:13Z</time>
      </trkpt>
      <trkpt lat="43.74321" lon="6.78273">
        <ele>1509</ele>
        <time>2015-11-08T14:02:39Z</time>
      </trkpt>
      <trkpt lat="43.74319" lon="6.78298">
        <ele>1505.95</ele>
        <time>2015-11-08T14:03:08Z</time>
      </trkpt>
      <trkpt lat="43.74333" lon="6.78313">
        <ele>1500.69</ele>
        <time>2015-11-08T14:04:31Z</time>
      </trkpt>
      <trkpt lat="43.74344" lon="6.78333">
        <ele>1499.03</ele>
        <time>2015-11-08T14:05:03Z</time>
      </trkpt>
      <trkpt lat="43.7436" lon="6.78347">
        <ele>1498.6</ele>
        <time>2015-11-08T14:05:23Z</time>
      </trkpt>
      <trkpt lat="43.74368" lon="6.78369">
        <ele>1500.18</ele>
        <time>2015-11-08T14:05:55Z</time>
      </trkpt>
      <trkpt lat="43.74386" lon="6.78368">
        <ele>1502.65</ele>
        <time>2015-11-08T14:06:31Z</time>
      </trkpt>
      <trkpt lat="43.744" lon="6.78384">
        <ele>1507.19</ele>
        <time>2015-11-08T14:07:09Z</time>
      </trkpt>
      <trkpt lat="43.74416" lon="6.78398">
        <ele>1508.8</ele>
        <time>2015-11-08T14:07:45Z</time>
      </trkpt>
      <trkpt lat="43.74434" lon="6.78395">
        <ele>1514.41</ele>
        <time>2015-11-08T14:11:03Z</time>
      </trkpt>
      <trkpt lat="43.74453" lon="6.78399">
        <ele>1518.89</ele>
        <time>2015-11-08T14:11:56Z</time>
      </trkpt>
      <trkpt lat="43.74463" lon="6.78422">
        <ele>1521.25</ele>
        <time>2015-11-08T14:12:19Z</time>
      </trkpt>
      <trkpt lat="43.74481" lon="6.78416">
        <ele>1523.79</ele>
        <time>2015-11-08T14:12:41Z</time>
      </trkpt>
      <trkpt lat="43.74498" lon="6.78422">
        <ele>1528.92</ele>
        <time>2015-11-08T14:13:29Z</time>
      </trkpt>
      <trkpt lat="43.74516" lon="6.7843">
        <ele>1533.9</ele>
        <time>2015-11-08T14:14:23Z</time>
      </trkpt>
      <trkpt lat="43.74533" lon="6.78439">
        <ele>1542.37</ele>
        <time>2015-11-08T14:15:04Z</time>
      </trkpt>
      <trkpt lat="43.74548" lon="6.78426">
        <ele>1545.72</ele>
        <time>2015-11-08T14:15:27Z</time>
      </trkpt>
      <trkpt lat="43.74567" lon="6.7842">
        <ele>1550.5</ele>
        <time>2015-11-08T14:16:07Z</time>
      </trkpt>
      <trkpt lat="43.74582" lon="6.78404">
        <ele>1554.66</ele>
        <time>2015-11-08T14:16:26Z</time>
      </trkpt>
      <trkpt lat="43.74595" lon="6.78388">
        <ele>1562.67</ele>
        <time>2015-11-08T14:17:04Z</time>
      </trkpt>
      <trkpt lat="43.74605" lon="6.78366">
        <ele>1563.61</ele>
        <time>2015-11-08T14:17:34Z</time>
      </trkpt>
      <trkpt lat="43.74617" lon="6.78347">
        <ele>1565.67</ele>
        <time>2015-11-08T14:18:01Z</time>
      </trkpt>
      <trkpt lat="43.74631" lon="6.7833">
        <ele>1571.8</ele>
        <time>2015-11-08T14:18:58Z</time>
      </trkpt>
      <trkpt lat="43.74643" lon="6.78349">
        <ele>1576.71</ele>
        <time>2015-11-08T14:20:04Z</time>
      </trkpt>
      <trkpt lat="43.74642" lon="6.78374">
        <ele>1582.38</ele>
        <time>2015-11-08T14:21:01Z</time>
      </trkpt>
      <trkpt lat="43.74644" lon="6.784">
        <ele>1588.06</ele>
        <time>2015-11-08T14:21:35Z</time>
      </trkpt>
      <trkpt lat="43.74647" lon="6.78424">
        <ele>1592.19</ele>
        <time>2015-11-08T14:22:09Z</time>
      </trkpt>
      <trkpt lat="43.74649" lon="6.78449">
        <ele>1593.09</ele>
        <time>2015-11-08T14:22:37Z</time>
      </trkpt>
      <trkpt lat="43.74653" lon="6.78474">
        <ele>1606.01</ele>
        <time>2015-11-08T14:24:24Z</time>
      </trkpt>
      <trkpt lat="43.74658" lon="6.78498">
        <ele>1617.49</ele>
        <time>2015-11-08T14:25:27Z</time>
      </trkpt>
      <trkpt lat="43.7467" lon="6.78516">
        <ele>1631.21</ele>
        <time>2015-11-08T14:26:44Z</time>
      </trkpt>
      <trkpt lat="43.7468" lon="6.78537">
        <ele>1639.04</ele>
        <time>2015-11-08T14:27:33Z</time>
      </trkpt>
      <trkpt lat="43.74685" lon="6.78561">
        <ele>1645.28</ele>
        <time>2015-11-08T14:28:27Z</time>
      </trkpt>
      <trkpt lat="43.74689" lon="6.78586">
        <ele>1652.98</ele>
        <time>2015-11-08T14:29:18Z</time>
      </trkpt>
      <trkpt lat="43.74695" lon="6.7861">
        <ele>1658.78</ele>
        <time>2015-11-08T14:29:55Z</time>
      </trkpt>
      <trkpt lat="43.74701" lon="6.78634">
        <ele>1665.82</ele>
        <time>2015-11-08T14:30:33Z</time>
      </trkpt>
      <trkpt lat="43.74711" lon="6.78655">
        <ele>1671.35</ele>
        <time>2015-11-08T14:31:23Z</time>
      </trkpt>
      <trkpt lat="43.74725" lon="6.78638">
        <ele>1676.04</ele>
        <time>2015-11-08T14:32:00Z</time>
      </trkpt>
      <trkpt lat="43.74733" lon="6.78614">
        <ele>1679.18</ele>
        <time>2015-11-08T14:32:26Z</time>
      </trkpt>
      <trkpt lat="43.74739" lon="6.7859">
        <ele>1681.64</ele>
        <time>2015-11-08T14:32:49Z</time>
      </trkpt>
      <trkpt lat="43.74747" lon="6.78567">
        <ele>1683.93</ele>
        <time>2015-11-08T14:33:05Z</time>
      </trkpt>
      <trkpt lat="43.74759" lon="6.78547">
        <ele>1685.45</ele>
        <time>2015-11-08T14:33:23Z</time>
      </trkpt>
      <trkpt lat="43.74772" lon="6.78529">
        <ele>1689.5</ele>
        <time>2015-11-08T14:37:48Z</time>
      </trkpt>
      <trkpt lat="43.74779" lon="6.78505">
        <ele>1692.08</ele>
        <time>2015-11-08T14:43:17Z</time>
      </trkpt>
      <trkpt lat="43.74785" lon="6.7848">
        <ele>1692.2</ele>
        <time>2015-11-08T14:43:35Z</time>
      </trkpt>
      <trkpt lat="43.74791" lon="6.78456">
        <ele>1692.18</ele>
        <time>2015-11-08T14:43:53Z</time>
      </trkpt>
      <trkpt lat="43.74796" lon="6.78431">
        <ele>1695.08</ele>
        <time>2015-11-08T14:44:10Z</time>
      </trkpt>
      <trkpt lat="43.74807" lon="6.78411">
        <ele>1696.02</ele>
        <time>2015-11-08T14:44:37Z</time>
      </trkpt>
      <trkpt lat="43.74812" lon="6.78386">
        <ele>1696.33</ele>
        <time>2015-11-08T14:44:54Z</time>
      </trkpt>
      <trkpt lat="43.74817" lon="6.78361">
        <ele>1696.42</ele>
        <time>2015-11-08T14:45:11Z</time>
      </trkpt>
      <trkpt lat="43.74813" lon="6.78335">
        <ele>1694.05</ele>
        <time>2015-11-08T14:45:23Z</time>
      </trkpt>
      <trkpt lat="43.74808" lon="6.78311">
        <ele>1690.47</ele>
        <time>2015-11-08T14:45:45Z</time>
      </trkpt>
      <trkpt lat="43.74817" lon="6.78289">
        <ele>1691.73</ele>
        <time>2015-11-08T14:46:07Z</time>
      </trkpt>
      <trkpt lat="43.74827" lon="6.78267">
        <ele>1690.95</ele>
        <time>2015-11-08T14:46:24Z</time>
      </trkpt>
      <trkpt lat="43.74838" lon="6.78247">
        <ele>1695</ele>
        <time>2015-11-08T14:46:52Z</time>
      </trkpt>
      <trkpt lat="43.74849" lon="6.78225">
        <ele>1697.21</ele>
        <time>2015-11-08T14:47:10Z</time>
      </trkpt>
      <trkpt lat="43.74853" lon="6.78201">
        <ele>1697.29</ele>
        <time>2015-11-08T14:47:25Z</time>
      </trkpt>
      <trkpt lat="43.7486" lon="6.78177">
        <ele>1697.87</ele>
        <time>2015-11-08T14:47:43Z</time>
      </trkpt>
      <trkpt lat="43.74872" lon="6.78158">
        <ele>1697.58</ele>
        <time>2015-11-08T14:48:03Z</time>
      </trkpt>
      <trkpt lat="43.7488" lon="6.78136">
        <ele>1695.66</ele>
        <time>2015-11-08T14:48:18Z</time>
      </trkpt>
      <trkpt lat="43.74888" lon="6.78113">
        <ele>1693.87</ele>
        <time>2015-11-08T14:48:38Z</time>
      </trkpt>
      <trkpt lat="43.74899" lon="6.78092">
        <ele>1694.01</ele>
        <time>2015-11-08T14:48:58Z</time>
      </trkpt>
      <trkpt lat="43.74909" lon="6.78071">
        <ele>1689.54</ele>
        <time>2015-11-08T14:49:18Z</time>
      </trkpt>
      <trkpt lat="43.74913" lon="6.78047">
        <ele>1686.95</ele>
        <time>2015-11-08T14:49:40Z</time>
      </trkpt>
      <trkpt lat="43.74916" lon="6.7802">
        <ele>1685.39</ele>
        <time>2015-11-08T14:49:55Z</time>
      </trkpt>
      <trkpt lat="43.74923" lon="6.77997">
        <ele>1683.02</ele>
        <time>2015-11-08T14:50:11Z</time>
      </trkpt>
      <trkpt lat="43.74933" lon="6.77974">
        <ele>1679.28</ele>
        <time>2015-11-08T14:50:47Z</time>
      </trkpt>
      <trkpt lat="43.74944" lon="6.77954">
        <ele>1679.77</ele>
        <time>2015-11-08T14:51:04Z</time>
      </trkpt>
      <trkpt lat="43.74953" lon="6.77932">
        <ele>1679.4</ele>
        <time>2015-11-08T14:51:30Z</time>
      </trkpt>
      <trkpt lat="43.74959" lon="6.77908">
        <ele>1678.06</ele>
        <time>2015-11-08T14:51:44Z</time>
      </trkpt>
      <trkpt lat="43.74964" lon="6.77883">
        <ele>1677.38</ele>
        <time>2015-11-08T14:52:08Z</time>
      </trkpt>
      <trkpt lat="43.74968" lon="6.77858">
        <ele>1674.08</ele>
        <time>2015-11-08T14:52:31Z</time>
      </trkpt>
      <trkpt lat="43.74978" lon="6.77837">
        <ele>1671.04</ele>
        <time>2015-11-08T14:53:06Z</time>
      </trkpt>
      <trkpt lat="43.74989" lon="6.77817">
        <ele>1668.99</ele>
        <time>2015-11-08T14:53:30Z</time>
      </trkpt>
      <trkpt lat="43.75005" lon="6.77806">
        <ele>1667.97</ele>
        <time>2015-11-08T14:53:52Z</time>
      </trkpt>
      <trkpt lat="43.75012" lon="6.77783">
        <ele>1666.15</ele>
        <time>2015-11-08T14:54:11Z</time>
      </trkpt>
      <trkpt lat="43.75021" lon="6.77761">
        <ele>1661.56</ele>
        <time>2015-11-08T14:54:35Z</time>
      </trkpt>
      <trkpt lat="43.7503" lon="6.77738">
        <ele>1658.45</ele>
        <time>2015-11-08T14:54:56Z</time>
      </trkpt>
      <trkpt lat="43.75047" lon="6.77732">
        <ele>1653.6</ele>
        <time>2015-11-08T14:55:14Z</time>
      </trkpt>
      <trkpt lat="43.75064" lon="6.77721">
        <ele>1648.1</ele>
        <time>2015-11-08T14:55:40Z</time>
      </trkpt>
      <trkpt lat="43.75072" lon="6.77698">
        <ele>1641.57</ele>
        <time>2015-11-08T14:56:11Z</time>
      </trkpt>
      <trkpt lat="43.75079" lon="6.77675">
        <ele>1636.79</ele>
        <time>2015-11-08T14:56:57Z</time>
      </trkpt>
      <trkpt lat="43.75085" lon="6.7765">
        <ele>1631.84</ele>
        <time>2015-11-08T14:57:29Z</time>
      </trkpt>
      <trkpt lat="43.75098" lon="6.7763">
        <ele>1627.81</ele>
        <time>2015-11-08T14:57:53Z</time>
      </trkpt>
      <trkpt lat="43.75106" lon="6.77606">
        <ele>1623.98</ele>
        <time>2015-11-08T14:58:27Z</time>
      </trkpt>
      <trkpt lat="43.75114" lon="6.77584">
        <ele>1622.39</ele>
        <time>2015-11-08T14:58:44Z</time>
      </trkpt>
      <trkpt lat="43.75129" lon="6.77571">
        <ele>1622.94</ele>
        <time>2015-11-08T14:59:11Z</time>
      </trkpt>
      <trkpt lat="43.75144" lon="6.77555">
        <ele>1623.79</ele>
        <time>2015-11-08T14:59:36Z</time>
      </trkpt>
      <trkpt lat="43.75155" lon="6.77535">
        <ele>1625.04</ele>
        <time>2015-11-08T15:00:02Z</time>
      </trkpt>
      <trkpt lat="43.75168" lon="6.77517">
        <ele>1628.17</ele>
        <time>2015-11-08T15:00:31Z</time>
      </trkpt>
      <trkpt lat="43.75168" lon="6.77492">
        <ele>1631.42</ele>
        <time>2015-11-08T15:00:55Z</time>
      </trkpt>
      <trkpt lat="43.7517" lon="6.77467">
        <ele>1634.66</ele>
        <time>2015-11-08T15:01:14Z</time>
      </trkpt>
      <trkpt lat="43.75178" lon="6.77444">
        <ele>1635.61</ele>
        <time>2015-11-08T15:01:32Z</time>
      </trkpt>
      <trkpt lat="43.75184" lon="6.77419">
        <ele>1635.94</ele>
        <time>2015-11-08T15:01:50Z</time>
      </trkpt>
      <trkpt lat="43.75191" lon="6.77395">
        <ele>1637.77</ele>
        <time>2015-11-08T15:02:10Z</time>
      </trkpt>
      <trkpt lat="43.75197" lon="6.77371">
        <ele>1638.73</ele>
        <time>2015-11-08T15:02:28Z</time>
      </trkpt>
      <trkpt lat="43.752" lon="6.77347">
        <ele>1638.19</ele>
        <time>2015-11-08T15:02:47Z</time>
      </trkpt>
      <trkpt lat="43.75203" lon="6.77322">
        <ele>1637.7</ele>
        <time>2015-11-08T15:03:13Z</time>
      </trkpt>
      <trkpt lat="43.75202" lon="6.77296">
        <ele>1638.67</ele>
        <time>2015-11-08T15:03:32Z</time>
      </trkpt>
      <trkpt lat="43.7521" lon="6.77273">
        <ele>1638.1</ele>
        <time>2015-11-08T15:03:54Z</time>
      </trkpt>
      <trkpt lat="43.75212" lon="6.77248">
        <ele>1636.73</ele>
        <time>2015-11-08T15:04:11Z</time>
      </trkpt>
      <trkpt lat="43.75221" lon="6.77226">
        <ele>1636.69</ele>
        <time>2015-11-08T15:04:38Z</time>
      </trkpt>
      <trkpt lat="43.75228" lon="6.77203">
        <ele>1635.45</ele>
        <time>2015-11-08T15:04:59Z</time>
      </trkpt>
      <trkpt lat="43.75233" lon="6.77178">
        <ele>1633.52</ele>
        <time>2015-11-08T15:05:28Z</time>
      </trkpt>
      <trkpt lat="43.75231" lon="6.77152">
        <ele>1631.51</ele>
        <time>2015-11-08T15:06:03Z</time>
      </trkpt>
      <trkpt lat="43.75222" lon="6.7713">
        <ele>1630.83</ele>
        <time>2015-11-08T15:06:23Z</time>
      </trkpt>
      <trkpt lat="43.75211" lon="6.77108">
        <ele>1632.73</ele>
        <time>2015-11-08T15:07:11Z</time>
      </trkpt>
      <trkpt lat="43.75211" lon="6.77083">
        <ele>1631.24</ele>
        <time>2015-11-08T15:07:30Z</time>
      </trkpt>
      <trkpt lat="43.75222" lon="6.77062">
        <ele>1630.07</ele>
        <time>2015-11-08T15:08:08Z</time>
      </trkpt>
      <trkpt lat="43.75223" lon="6.77037">
        <ele>1626.46</ele>
        <time>2015-11-08T15:09:47Z</time>
      </trkpt>
      <trkpt lat="43.7524" lon="6.77027">
        <ele>1624.14</ele>
        <time>2015-11-08T15:10:08Z</time>
      </trkpt>
      <trkpt lat="43.75257" lon="6.77018">
        <ele>1622.32</ele>
        <time>2015-11-08T15:10:36Z</time>
      </trkpt>
      <trkpt lat="43.75262" lon="6.76994">
        <ele>1617.37</ele>
        <time>2015-11-08T15:10:59Z</time>
      </trkpt>
      <trkpt lat="43.75264" lon="6.76969">
        <ele>1612.8</ele>
        <time>2015-11-08T15:11:18Z</time>
      </trkpt>
      <trkpt lat="43.75276" lon="6.7695">
        <ele>1607.67</ele>
        <time>2015-11-08T15:11:44Z</time>
      </trkpt>
      <trkpt lat="43.75283" lon="6.76927">
        <ele>1597.59</ele>
        <time>2015-11-08T15:12:25Z</time>
      </trkpt>
      <trkpt lat="43.75289" lon="6.76903">
        <ele>1592.76</ele>
        <time>2015-11-08T15:12:49Z</time>
      </trkpt>
      <trkpt lat="43.75301" lon="6.76881">
        <ele>1580.72</ele>
        <time>2015-11-08T15:13:32Z</time>
      </trkpt>
      <trkpt lat="43.75316" lon="6.76866">
        <ele>1575.57</ele>
        <time>2015-11-08T15:14:07Z</time>
      </trkpt>
      <trkpt lat="43.75325" lon="6.76845">
        <ele>1565.17</ele>
        <time>2015-11-08T15:15:07Z</time>
      </trkpt>
      <trkpt lat="43.75328" lon="6.76819">
        <ele>1561.26</ele>
        <time>2015-11-08T15:15:33Z</time>
      </trkpt>
      <trkpt lat="43.75344" lon="6.76807">
        <ele>1555.62</ele>
        <time>2015-11-08T15:17:06Z</time>
      </trkpt>
      <trkpt lat="43.75354" lon="6.76785">
        <ele>1549.48</ele>
        <time>2015-11-08T15:17:41Z</time>
      </trkpt>
      <trkpt lat="43.75346" lon="6.76762">
        <ele>1545.24</ele>
        <time>2015-11-08T15:18:03Z</time>
      </trkpt>
      <trkpt lat="43.75353" lon="6.76738">
        <ele>1539.56</ele>
        <time>2015-11-08T15:18:34Z</time>
      </trkpt>
      <trkpt lat="43.75361" lon="6.76715">
        <ele>1531.89</ele>
        <time>2015-11-08T15:19:14Z</time>
      </trkpt>
      <trkpt lat="43.75364" lon="6.7669">
        <ele>1530.43</ele>
        <time>2015-11-08T15:19:40Z</time>
      </trkpt>
      <trkpt lat="43.7537" lon="6.76666">
        <ele>1523.76</ele>
        <time>2015-11-08T15:20:29Z</time>
      </trkpt>
      <trkpt lat="43.75381" lon="6.76646">
        <ele>1511.12</ele>
        <time>2015-11-08T15:21:23Z</time>
      </trkpt>
      <trkpt lat="43.75397" lon="6.76632">
        <ele>1494.36</ele>
        <time>2015-11-08T15:22:26Z</time>
      </trkpt>
      <trkpt lat="43.75403" lon="6.76608">
        <ele>1493.69</ele>
        <time>2015-11-08T15:22:39Z</time>
      </trkpt>
      <trkpt lat="43.75416" lon="6.76591">
        <ele>1483.9</ele>
        <time>2015-11-08T15:23:32Z</time>
      </trkpt>
      <trkpt lat="43.75407" lon="6.76569">
        <ele>1479.63</ele>
        <time>2015-11-08T15:24:01Z</time>
      </trkpt>
      <trkpt lat="43.75423" lon="6.76557">
        <ele>1475.38</ele>
        <time>2015-11-08T15:24:54Z</time>
      </trkpt>
      <trkpt lat="43.75433" lon="6.76536">
        <ele>1467.47</ele>
        <time>2015-11-08T15:25:50Z</time>
      </trkpt>
      <trkpt lat="43.75444" lon="6.76516">
        <ele>1459.75</ele>
        <time>2015-11-08T15:26:42Z</time>
      </trkpt>
      <trkpt lat="43.75445" lon="6.76489">
        <ele>1451.17</ele>
        <time>2015-11-08T15:27:31Z</time>
      </trkpt>
      <trkpt lat="43.75445" lon="6.76463">
        <ele>1441.78</ele>
        <time>2015-11-08T15:28:22Z</time>
      </trkpt>
      <trkpt lat="43.75458" lon="6.76446">
        <ele>1438.03</ele>
        <time>2015-11-08T15:29:21Z</time>
      </trkpt>
      <trkpt lat="43.75471" lon="6.76427">
        <ele>1433.28</ele>
        <time>2015-11-08T15:29:43Z</time>
      </trkpt>
      <trkpt lat="43.75481" lon="6.76405">
        <ele>1423.9</ele>
        <time>2015-11-08T15:30:21Z</time>
      </trkpt>
      <trkpt lat="43.75496" lon="6.7639">
        <ele>1417.47</ele>
        <time>2015-11-08T15:30:52Z</time>
      </trkpt>
      <trkpt lat="43.75504" lon="6.76367">
        <ele>1411.73</ele>
        <time>2015-11-08T15:31:18Z</time>
      </trkpt>
      <trkpt lat="43.7551" lon="6.76343">
        <ele>1408.86</ele>
        <time>2015-11-08T15:31:33Z</time>
      </trkpt>
      <trkpt lat="43.75525" lon="6.76328">
        <ele>1406.56</ele>
        <time>2015-11-08T15:31:52Z</time>
      </trkpt>
      <trkpt lat="43.7554" lon="6.76311">
        <ele>1404.9</ele>
        <time>2015-11-08T15:32:08Z</time>
      </trkpt>
      <trkpt lat="43.75531" lon="6.76289">
        <ele>1402.1</ele>
        <time>2015-11-08T15:32:38Z</time>
      </trkpt>
      <trkpt lat="43.75551" lon="6.76286">
        <ele>1402.32</ele>
        <time>2015-11-08T15:33:03Z</time>
      </trkpt>
      <trkpt lat="43.75568" lon="6.76277">
        <ele>1401.58</ele>
        <time>2015-11-08T15:33:18Z</time>
      </trkpt>
      <trkpt lat="43.75586" lon="6.76274">
        <ele>1399.49</ele>
        <time>2015-11-08T15:33:35Z</time>
      </trkpt>
      <trkpt lat="43.75604" lon="6.76273">
        <ele>1398.34</ele>
        <time>2015-11-08T15:33:57Z</time>
      </trkpt>
      <trkpt lat="43.75613" lon="6.76251">
        <ele>1397.91</ele>
        <time>2015-11-08T15:34:11Z</time>
      </trkpt>
      <trkpt lat="43.75608" lon="6.76227">
        <ele>1397.09</ele>
        <time>2015-11-08T15:34:25Z</time>
      </trkpt>
      <trkpt lat="43.75601" lon="6.76202">
        <ele>1396.35</ele>
        <time>2015-11-08T15:34:43Z</time>
      </trkpt>
      <trkpt lat="43.75588" lon="6.76184">
        <ele>1395.81</ele>
        <time>2015-11-08T15:34:58Z</time>
      </trkpt>
      <trkpt lat="43.75572" lon="6.7617">
        <ele>1395.14</ele>
        <time>2015-11-08T15:35:12Z</time>
      </trkpt>
      <trkpt lat="43.75557" lon="6.76156">
        <ele>1395.36</ele>
        <time>2015-11-08T15:35:29Z</time>
      </trkpt>
      <trkpt lat="43.75541" lon="6.76143">
        <ele>1397.48</ele>
        <time>2015-11-08T15:35:44Z</time>
      </trkpt>
      <trkpt lat="43.75526" lon="6.76131">
        <ele>1397.9</ele>
        <time>2015-11-08T15:36:11Z</time>
      </trkpt>
      <trkpt lat="43.7551" lon="6.7612">
        <ele>1395.45</ele>
        <time>2015-11-08T15:36:26Z</time>
      </trkpt>
      <trkpt lat="43.75495" lon="6.76101">
        <ele>1393.84</ele>
        <time>2015-11-08T15:36:39Z</time>
      </trkpt>
      <trkpt lat="43.75483" lon="6.76082">
        <ele>1393.59</ele>
        <time>2015-11-08T15:36:53Z</time>
      </trkpt>
      <trkpt lat="43.75472" lon="6.76061">
        <ele>1395.58</ele>
        <time>2015-11-08T15:37:34Z</time>
      </trkpt>
      <trkpt lat="43.75463" lon="6.76038">
        <ele>1395.16</ele>
        <time>2015-11-08T15:37:56Z</time>
      </trkpt>
      <trkpt lat="43.75458" lon="6.76013">
        <ele>1394.59</ele>
        <time>2015-11-08T15:38:10Z</time>
      </trkpt>
      <trkpt lat="43.75449" lon="6.75991">
        <ele>1396.82</ele>
        <time>2015-11-08T15:38:34Z</time>
      </trkpt>
      <trkpt lat="43.75431" lon="6.75992">
        <ele>1398.27</ele>
        <time>2015-11-08T15:39:02Z</time>
      </trkpt>
      <trkpt lat="43.75413" lon="6.75988">
        <ele>1395.16</ele>
        <time>2015-11-08T15:39:27Z</time>
      </trkpt>
      <trkpt lat="43.75397" lon="6.76">
        <ele>1391.65</ele>
        <time>2015-11-08T15:39:56Z</time>
      </trkpt>
      <trkpt lat="43.75379" lon="6.76007">
        <ele>1387.64</ele>
        <time>2015-11-08T15:40:25Z</time>
      </trkpt>
      <trkpt lat="43.75361" lon="6.76011">
        <ele>1384.91</ele>
        <time>2015-11-08T15:40:44Z</time>
      </trkpt>
      <trkpt lat="43.75344" lon="6.76004">
        <ele>1383.47</ele>
        <time>2015-11-08T15:41:03Z</time>
      </trkpt>
      <trkpt lat="43.75327" lon="6.75994">
        <ele>1378.48</ele>
        <time>2015-11-08T15:44:16Z</time>
      </trkpt>
      <trkpt lat="43.75313" lon="6.75978">
        <ele>1378.05</ele>
        <time>2015-11-08T15:44:35Z</time>
      </trkpt>
      <trkpt lat="43.75297" lon="6.75966">
        <ele>1377.66</ele>
        <time>2015-11-08T15:44:55Z</time>
      </trkpt>
      <trkpt lat="43.75292" lon="6.75942">
        <ele>1376.71</ele>
        <time>2015-11-08T15:45:17Z</time>
      </trkpt>
      <trkpt lat="43.75286" lon="6.75918">
        <ele>1376.95</ele>
        <time>2015-11-08T15:45:35Z</time>
      </trkpt>
      <trkpt lat="43.75272" lon="6.75902">
        <ele>1376.14</ele>
        <time>2015-11-08T15:45:57Z</time>
      </trkpt>
      <trkpt lat="43.7526" lon="6.75883">
        <ele>1374.68</ele>
        <time>2015-11-08T15:47:13Z</time>
      </trkpt>
      <trkpt lat="43.75252" lon="6.75859">
        <ele>1372.26</ele>
        <time>2015-11-08T15:47:38Z</time>
      </trkpt>
      <trkpt lat="43.75244" lon="6.75836">
        <ele>1371.47</ele>
        <time>2015-11-08T15:47:55Z</time>
      </trkpt>
      <trkpt lat="43.75237" lon="6.75813">
        <ele>1369.21</ele>
        <time>2015-11-08T15:48:21Z</time>
      </trkpt>
      <trkpt lat="43.75233" lon="6.75788">
        <ele>1367.37</ele>
        <time>2015-11-08T15:48:41Z</time>
      </trkpt>
      <trkpt lat="43.75231" lon="6.75763">
        <ele>1365.87</ele>
        <time>2015-11-08T15:49:04Z</time>
      </trkpt>
      <trkpt lat="43.75223" lon="6.75739">
        <ele>1363.13</ele>
        <time>2015-11-08T15:49:23Z</time>
      </trkpt>
      <trkpt lat="43.75213" lon="6.75718">
        <ele>1359.93</ele>
        <time>2015-11-08T15:49:43Z</time>
      </trkpt>
      <trkpt lat="43.75201" lon="6.75699">
        <ele>1357.71</ele>
        <time>2015-11-08T15:50:04Z</time>
      </trkpt>
      <trkpt lat="43.75196" lon="6.75674">
        <ele>1355.36</ele>
        <time>2015-11-08T15:50:31Z</time>
      </trkpt>
      <trkpt lat="43.7519" lon="6.75649">
        <ele>1352.05</ele>
        <time>2015-11-08T15:51:01Z</time>
      </trkpt>
      <trkpt lat="43.75179" lon="6.75628">
        <ele>1347.62</ele>
        <time>2015-11-08T15:51:27Z</time>
      </trkpt>
      <trkpt lat="43.75167" lon="6.75611">
        <ele>1343.5</ele>
        <time>2015-11-08T15:51:50Z</time>
      </trkpt>
      <trkpt lat="43.75156" lon="6.7559">
        <ele>1338.44</ele>
        <time>2015-11-08T15:52:18Z</time>
      </trkpt>
      <trkpt lat="43.75143" lon="6.75571">
        <ele>1336.02</ele>
        <time>2015-11-08T15:53:03Z</time>
      </trkpt>
      <trkpt lat="43.75129" lon="6.75555">
        <ele>1332.02</ele>
        <time>2015-11-08T15:53:25Z</time>
      </trkpt>
      <trkpt lat="43.7512" lon="6.75532">
        <ele>1327.11</ele>
        <time>2015-11-08T15:53:51Z</time>
      </trkpt>
      <trkpt lat="43.75107" lon="6.75516">
        <ele>1321.12</ele>
        <time>2015-11-08T15:54:29Z</time>
      </trkpt>
      <trkpt lat="43.75098" lon="6.75494">
        <ele>1316.65</ele>
        <time>2015-11-08T15:55:01Z</time>
      </trkpt>
      <trkpt lat="43.75084" lon="6.75477">
        <ele>1313.89</ele>
        <time>2015-11-08T15:55:34Z</time>
      </trkpt>
      <trkpt lat="43.7507" lon="6.75462">
        <ele>1309.36</ele>
        <time>2015-11-08T15:56:01Z</time>
      </trkpt>
      <trkpt lat="43.75057" lon="6.75443">
        <ele>1302.32</ele>
        <time>2015-11-08T15:56:44Z</time>
      </trkpt>
      <trkpt lat="43.75045" lon="6.75424">
        <ele>1300.39</ele>
        <time>2015-11-08T15:57:04Z</time>
      </trkpt>
      <trkpt lat="43.75029" lon="6.75413">
        <ele>1294.92</ele>
        <time>2015-11-08T15:57:36Z</time>
      </trkpt>
      <trkpt lat="43.75016" lon="6.75395">
        <ele>1290.06</ele>
        <time>2015-11-08T15:58:10Z</time>
      </trkpt>
      <trkpt lat="43.75002" lon="6.75378">
        <ele>1288.96</ele>
        <time>2015-11-08T15:59:07Z</time>
      </trkpt>
      <trkpt lat="43.74988" lon="6.75361">
        <ele>1285.84</ele>
        <time>2015-11-08T15:59:32Z</time>
      </trkpt>
      <trkpt lat="43.74974" lon="6.75344">
        <ele>1282.27</ele>
        <time>2015-11-08T15:59:52Z</time>
      </trkpt>
      <trkpt lat="43.74958" lon="6.75329">
        <ele>1279.69</ele>
        <time>2015-11-08T16:00:13Z</time>
      </trkpt>
      <trkpt lat="43.74945" lon="6.75312">
        <ele>1278.34</ele>
        <time>2015-11-08T16:00:47Z</time>
      </trkpt>
      <trkpt lat="43.74931" lon="6.75295">
        <ele>1274.29</ele>
        <time>2015-11-08T16:01:09Z</time>
      </trkpt>
      <trkpt lat="43.74916" lon="6.75279">
        <ele>1271.7</ele>
        <time>2015-11-08T16:01:26Z</time>
      </trkpt>
      <trkpt lat="43.74899" lon="6.7527">
        <ele>1269.92</ele>
        <time>2015-11-08T16:01:45Z</time>
      </trkpt>
      <trkpt lat="43.74881" lon="6.75266">
        <ele>1262.3</ele>
        <time>2015-11-08T16:02:46Z</time>
      </trkpt>
      <trkpt lat="43.74862" lon="6.75265">
        <ele>1260.54</ele>
        <time>2015-11-08T16:03:00Z</time>
      </trkpt>
      <trkpt lat="43.74844" lon="6.75266">
        <ele>1257.97</ele>
        <time>2015-11-08T16:03:23Z</time>
      </trkpt>
      <trkpt lat="43.74825" lon="6.75264">
        <ele>1256.26</ele>
        <time>2015-11-08T16:03:43Z</time>
      </trkpt>
      <trkpt lat="43.74808" lon="6.75272">
        <ele>1252.33</ele>
        <time>2015-11-08T16:04:16Z</time>
      </trkpt>
      <trkpt lat="43.74789" lon="6.75271">
        <ele>1249.33</ele>
        <time>2015-11-08T16:04:34Z</time>
      </trkpt>
      <trkpt lat="43.74772" lon="6.7528">
        <ele>1245.23</ele>
        <time>2015-11-08T16:04:59Z</time>
      </trkpt>
      <trkpt lat="43.74757" lon="6.75295">
        <ele>1239.62</ele>
        <time>2015-11-08T16:05:23Z</time>
      </trkpt>
      <trkpt lat="43.7474" lon="6.75303">
        <ele>1231.4</ele>
        <time>2015-11-08T16:05:53Z</time>
      </trkpt>
      <trkpt lat="43.74723" lon="6.75312">
        <ele>1224.29</ele>
        <time>2015-11-08T16:06:26Z</time>
      </trkpt>
      <trkpt lat="43.74705" lon="6.75308">
        <ele>1221.01</ele>
        <time>2015-11-08T16:06:47Z</time>
      </trkpt>
      <trkpt lat="43.74687" lon="6.7531">
        <ele>1216.28</ele>
        <time>2015-11-08T16:07:12Z</time>
      </trkpt>
      <trkpt lat="43.74668" lon="6.75308">
        <ele>1212.7</ele>
        <time>2015-11-08T16:07:30Z</time>
      </trkpt>
      <trkpt lat="43.74659" lon="6.75286">
        <ele>1206.17</ele>
        <time>2015-11-08T16:08:42Z</time>
      </trkpt>
      <trkpt lat="43.74667" lon="6.75263">
        <ele>1203.43</ele>
        <time>2015-11-08T16:08:57Z</time>
      </trkpt>
      <trkpt lat="43.7468" lon="6.75244">
        <ele>1202.36</ele>
        <time>2015-11-08T16:09:11Z</time>
      </trkpt>
      <trkpt lat="43.74696" lon="6.75231">
        <ele>1203.83</ele>
        <time>2015-11-08T16:09:29Z</time>
      </trkpt>
      <trkpt lat="43.74707" lon="6.75209">
        <ele>1201.47</ele>
        <time>2015-11-08T16:09:49Z</time>
      </trkpt>
      <trkpt lat="43.74691" lon="6.75196">
        <ele>1199.19</ele>
        <time>2015-11-08T16:10:03Z</time>
      </trkpt>
      <trkpt lat="43.74675" lon="6.75183">
        <ele>1197.91</ele>
        <time>2015-11-08T16:10:28Z</time>
      </trkpt>
      <trkpt lat="43.74658" lon="6.75175">
        <ele>1194.85</ele>
        <time>2015-11-08T16:10:53Z</time>
      </trkpt>
      <trkpt lat="43.74639" lon="6.75171">
        <ele>1190.94</ele>
        <time>2015-11-08T16:11:21Z</time>
      </trkpt>
      <trkpt lat="43.74621" lon="6.75168">
        <ele>1189.06</ele>
        <time>2015-11-08T16:11:37Z</time>
      </trkpt>
      <trkpt lat="43.74604" lon="6.75179">
        <ele>1186.65</ele>
        <time>2015-11-08T16:11:59Z</time>
      </trkpt>
      <trkpt lat="43.74587" lon="6.75192">
        <ele>1183.58</ele>
        <time>2015-11-08T16:12:16Z</time>
      </trkpt>
      <trkpt lat="43.74573" lon="6.75208">
        <ele>1180.2</ele>
        <time>2015-11-08T16:12:40Z</time>
      </trkpt>
      <trkpt lat="43.74555" lon="6.75218">
        <ele>1176.47</ele>
        <time>2015-11-08T16:12:59Z</time>
      </trkpt>
      <trkpt lat="43.74537" lon="6.7522">
        <ele>1174.2</ele>
        <time>2015-11-08T16:13:20Z</time>
      </trkpt>
      <trkpt lat="43.74518" lon="6.75218">
        <ele>1171.22</ele>
        <time>2015-11-08T16:13:40Z</time>
      </trkpt>
      <trkpt lat="43.74506" lon="6.75198">
        <ele>1167.73</ele>
        <time>2015-11-08T16:14:15Z</time>
      </trkpt>
      <trkpt lat="43.74492" lon="6.75183">
        <ele>1165.78</ele>
        <time>2015-11-08T16:14:37Z</time>
      </trkpt>
      <trkpt lat="43.74474" lon="6.75175">
        <ele>1163</ele>
        <time>2015-11-08T16:14:57Z</time>
      </trkpt>
      <trkpt lat="43.74456" lon="6.75176">
        <ele>1161.31</ele>
        <time>2015-11-08T16:15:24Z</time>
      </trkpt>
      <trkpt lat="43.7444" lon="6.7519">
        <ele>1157.41</ele>
        <time>2015-11-08T16:15:49Z</time>
      </trkpt>
      <trkpt lat="43.74427" lon="6.75209">
        <ele>1154.07</ele>
        <time>2015-11-08T16:16:07Z</time>
      </trkpt>
      <trkpt lat="43.74417" lon="6.7523">
        <ele>1150.85</ele>
        <time>2015-11-08T16:16:26Z</time>
      </trkpt>
      <trkpt lat="43.74407" lon="6.75252">
        <ele>1148.89</ele>
        <time>2015-11-08T16:16:43Z</time>
      </trkpt>
    </trkseg>
  </trk>
</gpx>